Ar Chaden III — FGF5357 — position and weather

sailwx.info

Track history (hours):
 
Tides and Currents Weather Stations Pressure Air Temp Water Temp Dewpoint Dewpoint Depression Visibility Wind Speed Wind Dir Waves Ship Positions

Ar Chaden III

Last reported at 2017-Oct-25 16:11 UTC. Time now 2017-Nov-22 16:39 UTC.
Position N 48°39' W 002°49'.
Warning: this ship's position is 28 days out of date.

Length 12 m.

Type: Pleasure craft. MMSI: 227730430.

Date/timePositionNaut miles runAvg speedWind from/ knotsBaromVisibWave heightAir tempDewpointWater temp
2017-Oct-25 16:11N 48°39' W 002°49'0 0.4
2017-Oct-25 15:54N 48°39' W 002°49'3 3.9
2017-Oct-25 15:12N 48°41' W 002°47'1 3.9
2017-Oct-25 14:58N 48°41' W 002°46'5 5.3
2017-Oct-25 14:07N 48°41' W 002°39'1 5.8
2017-Oct-25 13:52N 48°41' W 002°37'7 5.9
2017-Oct-25 12:45N 48°42' W 002°27'5 6.5
2017-Oct-25 11:58N 48°41' W 002°19'4 0.2
2017-Oct-24 14:49N 48°39' W 002°13'2 6.3
2017-Oct-24 14:28N 48°40' W 002°10'2 4.7
2017-Oct-24 14:00N 48°42' W 002°09'4 7.1
2017-Oct-24 13:24N 48°43' W 002°03'3 6.6
2017-Oct-24 12:59N 48°44' W 001°59'  
Track history (hours):
 
Tides and Currents Weather Stations Pressure Air Temp Water Temp Dewpoint Dewpoint Depression Visibility Wind Speed Wind Dir Waves Ship Positions

Ar Chaden III

Last reported at 2017-Oct-25 16:11 UTC. Time now 2017-Nov-22 16:39 UTC.
Position N 48°39' W 002°49'.
Warning: this ship's position is 28 days out of date.

Length 12 m.

Type: Pleasure craft. MMSI: 227730430.

Date/timePositionNaut miles runAvg speedWind from/ knotsBaromVisibWave heightAir tempDewpointWater temp
2017-Oct-25 16:11N 48°39' W 002°49'0 0.4
2017-Oct-25 15:54N 48°39' W 002°49'3 3.9
2017-Oct-25 15:12N 48°41' W 002°47'1 3.9
2017-Oct-25 14:58N 48°41' W 002°46'5 5.3
2017-Oct-25 14:07N 48°41' W 002°39'1 5.8
2017-Oct-25 13:52N 48°41' W 002°37'7 5.9
2017-Oct-25 12:45N 48°42' W 002°27'5 6.5
2017-Oct-25 11:58N 48°41' W 002°19'4 0.2
2017-Oct-24 14:49N 48°39' W 002°13'2 6.3
2017-Oct-24 14:28N 48°40' W 002°10'2 4.7
2017-Oct-24 14:00N 48°42' W 002°09'4 7.1
2017-Oct-24 13:24N 48°43' W 002°03'3 6.6
2017-Oct-24 12:59N 48°44' W 001°59'  

Dump ship's entire track history